Shelbyville, Tennessee
Current Conditions -  °F | °C
As of 5:35 PM on Monday 20 Oct 2014 (Local Time) from KSYI Reporting Station
Clear Clear  
Wind Chill: 64°   Ceiling: Unl
Heat Index: 64°   Visibility: 10mi
Dew Point: 52°   Wind: 5mph
Humidity: 64%   Direction: 230°SW
Pressure: 30.01"   Gusts: NA
Location:  35.48°N, 86.46°W
Report Text: KSYI 202235Z AUTO 23004KT 10SM CLR 18/11 A3001 RMK
Loading
Personal Weather Stations






























Interactive Weather Map
Tropical Storm Tracking
New forecast layout! Learn more

10-Day Weather Forecast

Advertisements
Track Severe Weather on mobile